sensor_id;sensor_type;location;lat;lon;timestamp;P1;durP1;ratioP1;P2;durP2;ratioP2
9940;SDS011;5009;50.656;7.188;2022-07-01T00:02:05;1.80;;;1.53;;
9940;SDS011;5009;50.656;7.188;2022-07-01T00:04:30;1.60;;;1.50;;
9940;SDS011;5009;50.656;7.188;2022-07-01T00:06:56;1.90;;;1.60;;
9940;SDS011;5009;50.656;7.188;2022-07-01T00:09:22;1.73;;;1.63;;
9940;SDS011;5009;50.656;7.188;2022-07-01T00:11:48;2.23;;;1.70;;
9940;SDS011;5009;50.656;7.188;2022-07-01T00:14:14;1.83;;;1.70;;
9940;SDS011;5009;50.656;7.188;2022-07-01T00:16:40;2.27;;;1.50;;
9940;SDS011;5009;50.656;7.188;2022-07-01T00:19:05;2.27;;;1.83;;
9940;SDS011;5009;50.656;7.188;2022-07-01T00:21:32;1.93;;;1.77;;
9940;SDS011;5009;50.656;7.188;2022-07-01T00:23:58;1.87;;;1.77;;
9940;SDS011;5009;50.656;7.188;2022-07-01T00:26:23;5.80;;;1.80;;
9940;SDS011;5009;50.656;7.188;2022-07-01T00:28:49;2.30;;;1.87;;
9940;SDS011;5009;50.656;7.188;2022-07-01T00:31:15;2.10;;;1.90;;
9940;SDS011;5009;50.656;7.188;2022-07-01T00:33:40;1.83;;;1.73;;
9940;SDS011;5009;50.656;7.188;2022-07-01T00:36:06;2.17;;;2.07;;
9940;SDS011;5009;50.656;7.188;2022-07-01T00:38:31;1.80;;;1.70;;
9940;SDS011;5009;50.656;7.188;2022-07-01T00:40:57;2.13;;;1.97;;
9940;SDS011;5009;50.656;7.188;2022-07-01T00:43:23;2.20;;;2.10;;
9940;SDS011;5009;50.656;7.188;2022-07-01T00:45:49;2.10;;;2.00;;
9940;SDS011;5009;50.656;7.188;2022-07-01T00:48:16;1.83;;;1.73;;
9940;SDS011;5009;50.656;7.188;2022-07-01T00:50:43;2.20;;;1.97;;
9940;SDS011;5009;50.656;7.188;2022-07-01T00:53:09;2.53;;;2.00;;
9940;SDS011;5009;50.656;7.188;2022-07-01T00:55:35;2.40;;;2.20;;
9940;SDS011;5009;50.656;7.188;2022-07-01T00:58:01;3.03;;;2.07;;
9940;SDS011;5009;50.656;7.188;2022-07-01T01:00:27;3.43;;;2.07;;
9940;SDS011;5009;50.656;7.188;2022-07-01T01:02:52;2.20;;;2.00;;
9940;SDS011;5009;50.656;7.188;2022-07-01T01:05:18;2.33;;;2.00;;
9940;SDS011;5009;50.656;7.188;2022-07-01T01:07:45;2.20;;;2.10;;
9940;SDS011;5009;50.656;7.188;2022-07-01T01:10:12;2.50;;;2.30;;
9940;SDS011;5009;50.656;7.188;2022-07-01T01:12:39;2.20;;;2.10;;
9940;SDS011;5009;50.656;7.188;2022-07-01T01:15:05;3.53;;;1.97;;
9940;SDS011;5009;50.656;7.188;2022-07-01T01:17:31;2.80;;;2.20;;
9940;SDS011;5009;50.656;7.188;2022-07-01T01:19:57;4.10;;;2.13;;
9940;SDS011;5009;50.656;7.188;2022-07-01T01:22:22;4.40;;;1.90;;
9940;SDS011;5009;50.656;7.188;2022-07-01T01:24:48;2.40;;;2.20;;
9940;SDS011;5009;50.656;7.188;2022-07-01T01:27:14;4.03;;;2.17;;
9940;SDS011;5009;50.656;7.188;2022-07-01T01:29:41;2.20;;;2.10;;
9940;SDS011;5009;50.656;7.188;2022-07-01T01:32:07;2.87;;;2.67;;
9940;SDS011;5009;50.656;7.188;2022-07-01T01:34:33;3.23;;;3.03;;
9940;SDS011;5009;50.656;7.188;2022-07-01T01:37:04;3.93;;;2.60;;
9940;SDS011;5009;50.656;7.188;2022-07-01T01:39:31;4.33;;;2.80;;
9940;SDS011;5009;50.656;7.188;2022-07-01T01:41:56;4.50;;;2.70;;
9940;SDS011;5009;50.656;7.188;2022-07-01T01:44:22;2.77;;;2.57;;
9940;SDS011;5009;50.656;7.188;2022-07-01T01:46:47;2.60;;;2.40;;
9940;SDS011;5009;50.656;7.188;2022-07-01T01:49:13;5.97;;;2.67;;
9940;SDS011;5009;50.656;7.188;2022-07-01T01:51:39;3.20;;;2.90;;
9940;SDS011;5009;50.656;7.188;2022-07-01T01:54:04;14.13;;;2.40;;
9940;SDS011;5009;50.656;7.188;2022-07-01T01:56:30;2.33;;;2.23;;
9940;SDS011;5009;50.656;7.188;2022-07-01T01:58:56;2.43;;;2.30;;
9940;SDS011;5009;50.656;7.188;2022-07-01T02:01:23;3.30;;;2.87;;
9940;SDS011;5009;50.656;7.188;2022-07-01T02:03:50;3.97;;;2.77;;
9940;SDS011;5009;50.656;7.188;2022-07-01T02:06:17;3.03;;;2.83;;
9940;SDS011;5009;50.656;7.188;2022-07-01T02:08:44;3.43;;;2.33;;
9940;SDS011;5009;50.656;7.188;2022-07-01T02:11:10;2.60;;;2.40;;
9940;SDS011;5009;50.656;7.188;2022-07-01T02:13:35;3.97;;;3.10;;
9940;SDS011;5009;50.656;7.188;2022-07-01T02:16:02;2.87;;;2.60;;
9940;SDS011;5009;50.656;7.188;2022-07-01T02:18:28;3.40;;;2.50;;
9940;SDS011;5009;50.656;7.188;2022-07-01T02:20:55;3.13;;;2.60;;
9940;SDS011;5009;50.656;7.188;2022-07-01T02:23:20;2.53;;;2.40;;
9940;SDS011;5009;50.656;7.188;2022-07-01T02:25:47;3.03;;;2.80;;
9940;SDS011;5009;50.656;7.188;2022-07-01T02:28:12;3.83;;;2.63;;
9940;SDS011;5009;50.656;7.188;2022-07-01T02:30:38;2.70;;;2.50;;
9940;SDS011;5009;50.656;7.188;2022-07-01T02:33:07;2.90;;;2.70;;
9940;SDS011;5009;50.656;7.188;2022-07-01T02:35:34;3.17;;;2.60;;
9940;SDS011;5009;50.656;7.188;2022-07-01T02:38:02;4.47;;;2.40;;
9940;SDS011;5009;50.656;7.188;2022-07-01T02:40:28;2.73;;;2.53;;
9940;SDS011;5009;50.656;7.188;2022-07-01T02:42:54;2.93;;;2.73;;
9940;SDS011;5009;50.656;7.188;2022-07-01T02:45:19;3.53;;;2.93;;
9940;SDS011;5009;50.656;7.188;2022-07-01T02:47:45;3.03;;;2.80;;
9940;SDS011;5009;50.656;7.188;2022-07-01T02:50:12;3.77;;;2.70;;
9940;SDS011;5009;50.656;7.188;2022-07-01T02:52:39;6.93;;;3.10;;
9940;SDS011;5009;50.656;7.188;2022-07-01T02:55:06;3.10;;;2.90;;
9940;SDS011;5009;50.656;7.188;2022-07-01T02:57:33;4.57;;;2.67;;
9940;SDS011;5009;50.656;7.188;2022-07-01T02:59:59;2.87;;;2.67;;
9940;SDS011;5009;50.656;7.188;2022-07-01T03:02:25;2.80;;;2.60;;
9940;SDS011;5009;50.656;7.188;2022-07-01T03:04:51;4.43;;;3.00;;
9940;SDS011;5009;50.656;7.188;2022-07-01T03:07:18;4.40;;;2.97;;
9940;SDS011;5009;50.656;7.188;2022-07-01T03:09:44;3.63;;;3.07;;
9940;SDS011;5009;50.656;7.188;2022-07-01T03:12:12;3.20;;;2.90;;
9940;SDS011;5009;50.656;7.188;2022-07-01T03:14:57;4.50;;;2.83;;
9940;SDS011;5009;50.656;7.188;2022-07-01T03:17:24;4.60;;;3.10;;
9940;SDS011;5009;50.656;7.188;2022-07-01T03:19:51;3.67;;;3.37;;
9940;SDS011;5009;50.656;7.188;2022-07-01T03:22:18;4.07;;;3.20;;
9940;SDS011;5009;50.656;7.188;2022-07-01T03:24:45;4.30;;;3.40;;
9940;SDS011;5009;50.656;7.188;2022-07-01T03:27:10;2.80;;;2.70;;
9940;SDS011;5009;50.656;7.188;2022-07-01T03:29:36;4.10;;;3.00;;
9940;SDS011;5009;50.656;7.188;2022-07-01T03:32:01;4.43;;;2.77;;
9940;SDS011;5009;50.656;7.188;2022-07-01T03:34:27;3.23;;;2.93;;
9940;SDS011;5009;50.656;7.188;2022-07-01T03:36:53;4.97;;;3.00;;
9940;SDS011;5009;50.656;7.188;2022-07-01T03:39:18;2.90;;;2.70;;
9940;SDS011;5009;50.656;7.188;2022-07-01T03:41:44;3.00;;;2.60;;
9940;SDS011;5009;50.656;7.188;2022-07-01T03:44:10;3.90;;;3.00;;
9940;SDS011;5009;50.656;7.188;2022-07-01T03:46:35;3.13;;;2.80;;
9940;SDS011;5009;50.656;7.188;2022-07-01T03:49:02;4.23;;;3.20;;
9940;SDS011;5009;50.656;7.188;2022-07-01T03:51:29;3.47;;;2.97;;
9940;SDS011;5009;50.656;7.188;2022-07-01T03:53:54;3.00;;;2.80;;
9940;SDS011;5009;50.656;7.188;2022-07-01T03:56:38;3.10;;;2.90;;
9940;SDS011;5009;50.656;7.188;2022-07-01T03:59:04;3.00;;;2.77;;
9940;SDS011;5009;50.656;7.188;2022-07-01T04:01:29;3.10;;;2.80;;
9940;SDS011;5009;50.656;7.188;2022-07-01T04:03:56;2.90;;;2.60;;
9940;SDS011;5009;50.656;7.188;2022-07-01T04:06:21;3.07;;;2.40;;
9940;SDS011;5009;50.656;7.188;2022-07-01T04:08:47;2.77;;;2.57;;
9940;SDS011;5009;50.656;7.188;2022-07-01T04:11:14;4.00;;;3.00;;
9940;SDS011;5009;50.656;7.188;2022-07-01T04:13:40;3.07;;;2.73;;
9940;SDS011;5009;50.656;7.188;2022-07-01T04:16:06;4.23;;;2.67;;
9940;SDS011;5009;50.656;7.188;2022-07-01T04:18:33;3.33;;;3.03;;
9940;SDS011;5009;50.656;7.188;2022-07-01T04:20:59;4.17;;;2.83;;
9940;SDS011;5009;50.656;7.188;2022-07-01T04:23:43;2.87;;;2.67;;
9940;SDS011;5009;50.656;7.188;2022-07-01T04:26:09;3.27;;;2.50;;
9940;SDS011;5009;50.656;7.188;2022-07-01T04:28:34;3.13;;;2.80;;
9940;SDS011;5009;50.656;7.188;2022-07-01T04:31:00;3.10;;;2.80;;
9940;SDS011;5009;50.656;7.188;2022-07-01T04:33:25;4.00;;;3.03;;
9940;SDS011;5009;50.656;7.188;2022-07-01T04:35:51;5.57;;;2.97;;
9940;SDS011;5009;50.656;7.188;2022-07-01T04:38:17;6.00;;;2.67;;
9940;SDS011;5009;50.656;7.188;2022-07-01T04:40:42;3.70;;;2.57;;
9940;SDS011;5009;50.656;7.188;2022-07-01T04:43:28;5.67;;;2.43;;
9940;SDS011;5009;50.656;7.188;2022-07-01T04:45:53;3.37;;;2.47;;
9940;SDS011;5009;50.656;7.188;2022-07-01T04:48:20;4.20;;;2.57;;
9940;SDS011;5009;50.656;7.188;2022-07-01T04:50:45;3.80;;;2.30;;
9940;SDS011;5009;50.656;7.188;2022-07-01T04:53:12;6.10;;;2.60;;
9940;SDS011;5009;50.656;7.188;2022-07-01T04:55:38;2.47;;;2.23;;
9940;SDS011;5009;50.656;7.188;2022-07-01T04:58:04;2.00;;;1.83;;
9940;SDS011;5009;50.656;7.188;2022-07-01T05:00:29;3.07;;;2.00;;
9940;SDS011;5009;50.656;7.188;2022-07-01T05:02:55;4.30;;;2.20;;
9940;SDS011;5009;50.656;7.188;2022-07-01T05:05:20;2.57;;;2.10;;
9940;SDS011;5009;50.656;7.188;2022-07-01T05:07:46;3.37;;;1.83;;
9940;SDS011;5009;50.656;7.188;2022-07-01T05:10:12;2.23;;;1.90;;
9940;SDS011;5009;50.656;7.188;2022-07-01T05:12:38;2.93;;;1.80;;
9940;SDS011;5009;50.656;7.188;2022-07-01T05:15:03;4.60;;;2.43;;
9940;SDS011;5009;50.656;7.188;2022-07-01T05:17:29;3.83;;;2.30;;
9940;SDS011;5009;50.656;7.188;2022-07-01T05:20:14;2.03;;;1.83;;
9940;SDS011;5009;50.656;7.188;2022-07-01T05:22:58;2.33;;;1.80;;
9940;SDS011;5009;50.656;7.188;2022-07-01T05:25:23;2.20;;;1.97;;
9940;SDS011;5009;50.656;7.188;2022-07-01T05:27:49;5.57;;;2.60;;
9940;SDS011;5009;50.656;7.188;2022-07-01T05:30:14;2.97;;;2.10;;
9940;SDS011;5009;50.656;7.188;2022-07-01T05:32:40;3.10;;;1.83;;
9940;SDS011;5009;50.656;7.188;2022-07-01T05:35:05;5.07;;;2.33;;
9940;SDS011;5009;50.656;7.188;2022-07-01T05:37:31;2.40;;;2.20;;
9940;SDS011;5009;50.656;7.188;2022-07-01T05:39:57;2.23;;;2.00;;
9940;SDS011;5009;50.656;7.188;2022-07-01T05:42:22;4.20;;;2.30;;
9940;SDS011;5009;50.656;7.188;2022-07-01T05:44:47;3.43;;;1.90;;
9940;SDS011;5009;50.656;7.188;2022-07-01T05:47:13;2.43;;;1.67;;
9940;SDS011;5009;50.656;7.188;2022-07-01T05:49:38;2.43;;;1.90;;
9940;SDS011;5009;50.656;7.188;2022-07-01T05:52:04;4.63;;;1.87;;
9940;SDS011;5009;50.656;7.188;2022-07-01T05:54:30;2.87;;;1.60;;
9940;SDS011;5009;50.656;7.188;2022-07-01T05:56:55;2.28;;;2.08;;
9940;SDS011;5009;50.656;7.188;2022-07-01T05:59:21;7.77;;;2.13;;
9940;SDS011;5009;50.656;7.188;2022-07-01T06:01:46;2.17;;;1.90;;
9940;SDS011;5009;50.656;7.188;2022-07-01T06:04:13;2.78;;;1.83;;
9940;SDS011;5009;50.656;7.188;2022-07-01T06:06:39;2.40;;;1.83;;
9940;SDS011;5009;50.656;7.188;2022-07-01T06:09:05;3.23;;;2.10;;
9940;SDS011;5009;50.656;7.188;2022-07-01T06:11:30;1.90;;;1.75;;
9940;SDS011;5009;50.656;7.188;2022-07-01T06:13:56;1.95;;;1.85;;
9940;SDS011;5009;50.656;7.188;2022-07-01T06:16:22;5.88;;;2.00;;
9940;SDS011;5009;50.656;7.188;2022-07-01T06:18:47;2.13;;;1.83;;
9940;SDS011;5009;50.656;7.188;2022-07-01T06:21:13;4.47;;;2.00;;
9940;SDS011;5009;50.656;7.188;2022-07-01T06:23:40;3.33;;;2.03;;
9940;SDS011;5009;50.656;7.188;2022-07-01T06:26:05;2.22;;;2.03;;
9940;SDS011;5009;50.656;7.188;2022-07-01T06:28:31;3.00;;;1.88;;
9940;SDS011;5009;50.656;7.188;2022-07-01T06:30:57;3.65;;;2.00;;
9940;SDS011;5009;50.656;7.188;2022-07-01T06:33:23;2.30;;;1.90;;
9940;SDS011;5009;50.656;7.188;2022-07-01T06:35:48;3.30;;;1.83;;
9940;SDS011;5009;50.656;7.188;2022-07-01T06:38:14;4.00;;;2.28;;
9940;SDS011;5009;50.656;7.188;2022-07-01T06:40:39;2.70;;;1.92;;
9940;SDS011;5009;50.656;7.188;2022-07-01T06:43:05;2.85;;;1.90;;
9940;SDS011;5009;50.656;7.188;2022-07-01T06:45:31;3.53;;;2.13;;
9940;SDS011;5009;50.656;7.188;2022-07-01T06:47:56;5.38;;;2.10;;
9940;SDS011;5009;50.656;7.188;2022-07-01T06:50:22;2.63;;;1.90;;
9940;SDS011;5009;50.656;7.188;2022-07-01T06:52:47;3.13;;;1.75;;
9940;SDS011;5009;50.656;7.188;2022-07-01T06:55:13;3.35;;;1.83;;
9940;SDS011;5009;50.656;7.188;2022-07-01T06:57:38;2.58;;;2.00;;
9940;SDS011;5009;50.656;7.188;2022-07-01T07:00:04;3.95;;;2.00;;
9940;SDS011;5009;50.656;7.188;2022-07-01T07:02:30;2.08;;;1.73;;
9940;SDS011;5009;50.656;7.188;2022-07-01T07:04:56;1.70;;;1.60;;
9940;SDS011;5009;50.656;7.188;2022-07-01T07:07:23;3.92;;;2.20;;
9940;SDS011;5009;50.656;7.188;2022-07-01T07:09:49;2.08;;;1.88;;
9940;SDS011;5009;50.656;7.188;2022-07-01T07:12:14;4.07;;;1.90;;
9940;SDS011;5009;50.656;7.188;2022-07-01T07:14:40;2.20;;;1.88;;
9940;SDS011;5009;50.656;7.188;2022-07-01T07:17:06;2.38;;;2.20;;
9940;SDS011;5009;50.656;7.188;2022-07-01T07:19:32;3.47;;;1.90;;
9940;SDS011;5009;50.656;7.188;2022-07-01T07:21:57;2.22;;;1.83;;
9940;SDS011;5009;50.656;7.188;2022-07-01T07:24:23;3.30;;;1.90;;
9940;SDS011;5009;50.656;7.188;2022-07-01T07:26:48;1.95;;;1.80;;
9940;SDS011;5009;50.656;7.188;2022-07-01T07:29:14;3.72;;;2.00;;
9940;SDS011;5009;50.656;7.188;2022-07-01T07:31:39;3.33;;;2.42;;
9940;SDS011;5009;50.656;7.188;2022-07-01T07:34:05;4.47;;;2.10;;
9940;SDS011;5009;50.656;7.188;2022-07-01T07:36:30;4.00;;;2.28;;
9940;SDS011;5009;50.656;7.188;2022-07-01T07:38:56;2.95;;;1.80;;
9940;SDS011;5009;50.656;7.188;2022-07-01T07:41:22;2.28;;;1.80;;
9940;SDS011;5009;50.656;7.188;2022-07-01T07:43:48;2.10;;;1.85;;
9940;SDS011;5009;50.656;7.188;2022-07-01T07:46:14;3.28;;;2.00;;
9940;SDS011;5009;50.656;7.188;2022-07-01T07:48:40;2.78;;;1.73;;
9940;SDS011;5009;50.656;7.188;2022-07-01T07:51:08;1.77;;;1.67;;
9940;SDS011;5009;50.656;7.188;2022-07-01T07:53:34;1.92;;;1.63;;
9940;SDS011;5009;50.656;7.188;2022-07-01T07:55:59;2.97;;;1.67;;
9940;SDS011;5009;50.656;7.188;2022-07-01T07:58:25;2.40;;;2.08;;
9940;SDS011;5009;50.656;7.188;2022-07-01T08:00:51;1.70;;;1.60;;
9940;SDS011;5009;50.656;7.188;2022-07-01T08:03:16;1.98;;;1.67;;
9940;SDS011;5009;50.656;7.188;2022-07-01T08:05:42;2.78;;;1.60;;
9940;SDS011;5009;50.656;7.188;2022-07-01T08:08:07;1.45;;;1.42;;
9940;SDS011;5009;50.656;7.188;2022-07-01T08:10:33;2.00;;;1.65;;
9940;SDS011;5009;50.656;7.188;2022-07-01T08:12:58;3.17;;;1.60;;
9940;SDS011;5009;50.656;7.188;2022-07-01T08:15:28;2.47;;;1.48;;
9940;SDS011;5009;50.656;7.188;2022-07-01T08:17:54;1.83;;;1.40;;
9940;SDS011;5009;50.656;7.188;2022-07-01T08:20:20;2.53;;;1.60;;
9940;SDS011;5009;50.656;7.188;2022-07-01T08:22:45;1.70;;;1.60;;
9940;SDS011;5009;50.656;7.188;2022-07-01T08:25:11;2.63;;;1.88;;
9940;SDS011;5009;50.656;7.188;2022-07-01T08:27:36;3.42;;;1.42;;
9940;SDS011;5009;50.656;7.188;2022-07-01T08:30:02;1.90;;;1.80;;
9940;SDS011;5009;50.656;7.188;2022-07-01T08:32:28;3.55;;;1.92;;
9940;SDS011;5009;50.656;7.188;2022-07-01T08:34:54;2.17;;;1.50;;
9940;SDS011;5009;50.656;7.188;2022-07-01T08:37:19;1.60;;;1.50;;
9940;SDS011;5009;50.656;7.188;2022-07-01T08:39:45;2.45;;;1.77;;
9940;SDS011;5009;50.656;7.188;2022-07-01T08:42:10;2.28;;;1.70;;
9940;SDS011;5009;50.656;7.188;2022-07-01T08:44:36;2.03;;;1.60;;
9940;SDS011;5009;50.656;7.188;2022-07-01T08:47:02;2.08;;;1.55;;
9940;SDS011;5009;50.656;7.188;2022-07-01T08:49:27;2.90;;;1.60;;
9940;SDS011;5009;50.656;7.188;2022-07-01T08:51:53;5.68;;;1.70;;
9940;SDS011;5009;50.656;7.188;2022-07-01T08:54:19;2.40;;;2.03;;
9940;SDS011;5009;50.656;7.188;2022-07-01T08:56:44;2.35;;;1.70;;
9940;SDS011;5009;50.656;7.188;2022-07-01T08:59:11;2.88;;;1.80;;
9940;SDS011;5009;50.656;7.188;2022-07-01T09:01:38;3.33;;;1.65;;
9940;SDS011;5009;50.656;7.188;2022-07-01T09:04:14;1.85;;;1.58;;
9940;SDS011;5009;50.656;7.188;2022-07-01T09:06:41;3.22;;;1.60;;
9940;SDS011;5009;50.656;7.188;2022-07-01T09:09:11;3.35;;;1.58;;
9940;SDS011;5009;50.656;7.188;2022-07-01T09:11:43;2.17;;;1.30;;
9940;SDS011;5009;50.656;7.188;2022-07-01T09:14:11;1.60;;;1.50;;
9940;SDS011;5009;50.656;7.188;2022-07-01T09:16:44;1.52;;;1.42;;
9940;SDS011;5009;50.656;7.188;2022-07-01T09:19:15;2.67;;;1.63;;
9940;SDS011;5009;50.656;7.188;2022-07-01T09:21:46;2.60;;;1.55;;
9940;SDS011;5009;50.656;7.188;2022-07-01T09:24:23;2.17;;;1.63;;
9940;SDS011;5009;50.656;7.188;2022-07-01T09:27:06;2.15;;;1.55;;
9940;SDS011;5009;50.656;7.188;2022-07-01T09:29:39;4.30;;;1.52;;
9940;SDS011;5009;50.656;7.188;2022-07-01T09:32:07;3.80;;;1.67;;
9940;SDS011;5009;50.656;7.188;2022-07-01T09:34:35;3.55;;;1.67;;
9940;SDS011;5009;50.656;7.188;2022-07-01T09:37:10;1.65;;;1.48;;
9940;SDS011;5009;50.656;7.188;2022-07-01T09:42:09;1.92;;;1.13;;
9940;SDS011;5009;50.656;7.188;2022-07-01T09:44:35;3.08;;;1.48;;
9940;SDS011;5009;50.656;7.188;2022-07-01T09:47:16;2.45;;;1.42;;
9940;SDS011;5009;50.656;7.188;2022-07-01T09:49:42;1.85;;;1.50;;
9940;SDS011;5009;50.656;7.188;2022-07-01T09:52:08;3.88;;;1.27;;
9940;SDS011;5009;50.656;7.188;2022-07-01T09:54:33;1.83;;;1.30;;
9940;SDS011;5009;50.656;7.188;2022-07-01T09:57:00;2.28;;;1.52;;
9940;SDS011;5009;50.656;7.188;2022-07-01T09:59:27;2.38;;;1.30;;
9940;SDS011;5009;50.656;7.188;2022-07-01T10:01:52;3.88;;;1.58;;
9940;SDS011;5009;50.656;7.188;2022-07-01T10:04:18;1.38;;;1.20;;
9940;SDS011;5009;50.656;7.188;2022-07-01T10:06:46;1.23;;;1.20;;
9940;SDS011;5009;50.656;7.188;2022-07-01T10:09:48;2.55;;;1.40;;
9940;SDS011;5009;50.656;7.188;2022-07-01T10:14:55;2.08;;;1.10;;
9940;SDS011;5009;50.656;7.188;2022-07-01T10:20:07;1.25;;;1.05;;
9940;SDS011;5009;50.656;7.188;2022-07-01T10:22:35;2.20;;;1.30;;
9940;SDS011;5009;50.656;7.188;2022-07-01T10:28:14;1.75;;;1.40;;
9940;SDS011;5009;50.656;7.188;2022-07-01T10:35:53;1.48;;;1.30;;
9940;SDS011;5009;50.656;7.188;2022-07-01T10:38:18;1.38;;;1.25;;
9940;SDS011;5009;50.656;7.188;2022-07-01T10:40:44;2.50;;;1.15;;
9940;SDS011;5009;50.656;7.188;2022-07-01T10:43:14;1.63;;;1.52;;
9940;SDS011;5009;50.656;7.188;2022-07-01T10:45:45;1.00;;;1.00;;
9940;SDS011;5009;50.656;7.188;2022-07-01T10:48:22;1.70;;;1.10;;
9940;SDS011;5009;50.656;7.188;2022-07-01T10:50:49;1.55;;;0.85;;
9940;SDS011;5009;50.656;7.188;2022-07-01T10:53:16;1.27;;;0.93;;
9940;SDS011;5009;50.656;7.188;2022-07-01T10:55:49;1.10;;;0.95;;
9940;SDS011;5009;50.656;7.188;2022-07-01T10:58:17;1.20;;;1.20;;
9940;SDS011;5009;50.656;7.188;2022-07-01T11:00:44;1.40;;;1.30;;
9940;SDS011;5009;50.656;7.188;2022-07-01T11:03:22;1.75;;;1.30;;
9940;SDS011;5009;50.656;7.188;2022-07-01T11:05:49;1.38;;;1.00;;
9940;SDS011;5009;50.656;7.188;2022-07-01T11:08:17;3.88;;;1.20;;
9940;SDS011;5009;50.656;7.188;2022-07-01T11:10:43;2.08;;;1.13;;
9940;SDS011;5009;50.656;7.188;2022-07-01T11:13:12;2.08;;;1.15;;
9940;SDS011;5009;50.656;7.188;2022-07-01T11:15:39;1.27;;;1.17;;
9940;SDS011;5009;50.656;7.188;2022-07-01T11:18:05;2.33;;;1.08;;
9940;SDS011;5009;50.656;7.188;2022-07-01T11:20:32;0.73;;;0.73;;
9940;SDS011;5009;50.656;7.188;2022-07-01T11:22:58;1.13;;;1.02;;
9940;SDS011;5009;50.656;7.188;2022-07-01T11:25:24;1.48;;;1.10;;
9940;SDS011;5009;50.656;7.188;2022-07-01T11:27:50;4.15;;;1.58;;
9940;SDS011;5009;50.656;7.188;2022-07-01T11:30:16;0.90;;;0.90;;
9940;SDS011;5009;50.656;7.188;2022-07-01T11:32:45;1.80;;;1.50;;
9940;SDS011;5009;50.656;7.188;2022-07-01T11:35:14;0.88;;;0.88;;
9940;SDS011;5009;50.656;7.188;2022-07-01T11:38:19;1.92;;;0.95;;
9940;SDS011;5009;50.656;7.188;2022-07-01T11:41:06;3.08;;;1.25;;
9940;SDS011;5009;50.656;7.188;2022-07-01T11:43:34;2.55;;;1.15;;
9940;SDS011;5009;50.656;7.188;2022-07-01T11:46:02;1.25;;;1.08;;
9940;SDS011;5009;50.656;7.188;2022-07-01T11:51:07;0.80;;;0.80;;
9940;SDS011;5009;50.656;7.188;2022-07-01T11:53:34;1.88;;;0.90;;
9940;SDS011;5009;50.656;7.188;2022-07-01T11:56:00;0.93;;;0.93;;
9940;SDS011;5009;50.656;7.188;2022-07-01T11:58:45;1.50;;;1.08;;
9940;SDS011;5009;50.656;7.188;2022-07-01T12:01:19;1.27;;;1.00;;
9940;SDS011;5009;50.656;7.188;2022-07-01T12:03:46;1.40;;;1.30;;
9940;SDS011;5009;50.656;7.188;2022-07-01T12:06:11;2.15;;;1.10;;
9940;SDS011;5009;50.656;7.188;2022-07-01T12:08:37;1.00;;;1.00;;
9940;SDS011;5009;50.656;7.188;2022-07-01T12:11:03;0.90;;;0.90;;
9940;SDS011;5009;50.656;7.188;2022-07-01T12:13:29;1.75;;;1.10;;
9940;SDS011;5009;50.656;7.188;2022-07-01T12:16:10;1.27;;;1.13;;
9940;SDS011;5009;50.656;7.188;2022-07-01T12:18:36;1.42;;;1.00;;
9940;SDS011;5009;50.656;7.188;2022-07-01T12:21:03;2.40;;;1.40;;
9940;SDS011;5009;50.656;7.188;2022-07-01T12:23:29;1.33;;;1.20;;
9940;SDS011;5009;50.656;7.188;2022-07-01T12:25:55;1.25;;;0.98;;
9940;SDS011;5009;50.656;7.188;2022-07-01T12:28:28;1.20;;;1.10;;
9940;SDS011;5009;50.656;7.188;2022-07-01T12:31:09;1.00;;;1.00;;
9940;SDS011;5009;50.656;7.188;2022-07-01T12:33:39;1.23;;;1.13;;
9940;SDS011;5009;50.656;7.188;2022-07-01T12:36:13;1.60;;;1.50;;
9940;SDS011;5009;50.656;7.188;2022-07-01T12:38:40;1.52;;;1.23;;
9940;SDS011;5009;50.656;7.188;2022-07-01T12:41:26;1.60;;;1.50;;
9940;SDS011;5009;50.656;7.188;2022-07-01T12:43:53;2.33;;;1.30;;
9940;SDS011;5009;50.656;7.188;2022-07-01T12:46:32;1.50;;;1.00;;
9940;SDS011;5009;50.656;7.188;2022-07-01T12:48:57;1.17;;;1.08;;
9940;SDS011;5009;50.656;7.188;2022-07-01T12:51:33;1.88;;;1.40;;
9940;SDS011;5009;50.656;7.188;2022-07-01T12:53:59;1.67;;;1.13;;
9940;SDS011;5009;50.656;7.188;2022-07-01T12:56:25;1.80;;;1.27;;
9940;SDS011;5009;50.656;7.188;2022-07-01T12:58:53;5.38;;;1.20;;
9940;SDS011;5009;50.656;7.188;2022-07-01T13:01:19;2.33;;;1.30;;
9940;SDS011;5009;50.656;7.188;2022-07-01T13:03:45;1.98;;;1.58;;
9940;SDS011;5009;50.656;7.188;2022-07-01T13:06:12;1.42;;;1.33;;
9940;SDS011;5009;50.656;7.188;2022-07-01T13:08:37;2.08;;;1.38;;
9940;SDS011;5009;50.656;7.188;2022-07-01T13:11:03;2.65;;;1.20;;
9940;SDS011;5009;50.656;7.188;2022-07-01T13:13:30;1.30;;;1.27;;
9940;SDS011;5009;50.656;7.188;2022-07-01T13:15:56;7.00;;;1.60;;
9940;SDS011;5009;50.656;7.188;2022-07-01T13:18:22;4.70;;;1.40;;
9940;SDS011;5009;50.656;7.188;2022-07-01T13:20:48;1.50;;;1.40;;
9940;SDS011;5009;50.656;7.188;2022-07-01T13:23:14;2.08;;;1.20;;
9940;SDS011;5009;50.656;7.188;2022-07-01T13:25:40;2.00;;;1.35;;
9940;SDS011;5009;50.656;7.188;2022-07-01T13:28:06;1.40;;;1.30;;
9940;SDS011;5009;50.656;7.188;2022-07-01T13:30:32;1.65;;;1.20;;
9940;SDS011;5009;50.656;7.188;2022-07-01T13:32:58;1.58;;;1.15;;
9940;SDS011;5009;50.656;7.188;2022-07-01T13:35:23;1.58;;;1.45;;
9940;SDS011;5009;50.656;7.188;2022-07-01T13:37:49;2.90;;;1.45;;
9940;SDS011;5009;50.656;7.188;2022-07-01T13:40:16;3.38;;;1.20;;
9940;SDS011;5009;50.656;7.188;2022-07-01T13:42:41;5.05;;;1.60;;
9940;SDS011;5009;50.656;7.188;2022-07-01T13:45:07;4.03;;;3.67;;
9940;SDS011;5009;50.656;7.188;2022-07-01T13:47:33;3.60;;;3.00;;
9940;SDS011;5009;50.656;7.188;2022-07-01T13:49:59;2.97;;;1.98;;
9940;SDS011;5009;50.656;7.188;2022-07-01T13:52:25;1.77;;;1.65;;
9940;SDS011;5009;50.656;7.188;2022-07-01T13:54:53;2.88;;;1.35;;
9940;SDS011;5009;50.656;7.188;2022-07-01T13:57:19;1.95;;;1.30;;
9940;SDS011;5009;50.656;7.188;2022-07-01T13:59:44;1.40;;;1.30;;
9940;SDS011;5009;50.656;7.188;2022-07-01T14:02:10;1.27;;;1.17;;
9940;SDS011;5009;50.656;7.188;2022-07-01T14:04:36;3.08;;;1.75;;
9940;SDS011;5009;50.656;7.188;2022-07-01T14:07:01;1.67;;;1.40;;
9940;SDS011;5009;50.656;7.188;2022-07-01T14:09:28;1.20;;;1.20;;
9940;SDS011;5009;50.656;7.188;2022-07-01T14:11:53;2.85;;;1.35;;
9940;SDS011;5009;50.656;7.188;2022-07-01T14:14:19;1.73;;;1.63;;
9940;SDS011;5009;50.656;7.188;2022-07-01T14:16:44;2.97;;;1.27;;
9940;SDS011;5009;50.656;7.188;2022-07-01T14:19:10;2.15;;;1.52;;
9940;SDS011;5009;50.656;7.188;2022-07-01T14:21:35;3.15;;;1.83;;
9940;SDS011;5009;50.656;7.188;2022-07-01T14:24:03;1.33;;;1.23;;
9940;SDS011;5009;50.656;7.188;2022-07-01T14:26:29;0.90;;;0.90;;
9940;SDS011;5009;50.656;7.188;2022-07-01T14:28:54;1.20;;;1.10;;
9940;SDS011;5009;50.656;7.188;2022-07-01T14:31:20;2.15;;;1.55;;
9940;SDS011;5009;50.656;7.188;2022-07-01T14:33:45;2.38;;;1.38;;
9940;SDS011;5009;50.656;7.188;2022-07-01T14:36:12;1.58;;;1.35;;
9940;SDS011;5009;50.656;7.188;2022-07-01T14:38:38;1.83;;;1.20;;
9940;SDS011;5009;50.656;7.188;2022-07-01T14:41:03;0.98;;;0.88;;
9940;SDS011;5009;50.656;7.188;2022-07-01T14:43:29;1.55;;;1.10;;
9940;SDS011;5009;50.656;7.188;2022-07-01T14:45:56;1.45;;;1.35;;
9940;SDS011;5009;50.656;7.188;2022-07-01T14:48:22;1.40;;;1.23;;
9940;SDS011;5009;50.656;7.188;2022-07-01T14:50:47;3.67;;;1.40;;
9940;SDS011;5009;50.656;7.188;2022-07-01T14:53:13;2.20;;;1.20;;
9940;SDS011;5009;50.656;7.188;2022-07-01T14:55:38;2.67;;;1.10;;
9940;SDS011;5009;50.656;7.188;2022-07-01T14:58:04;1.50;;;1.20;;
9940;SDS011;5009;50.656;7.188;2022-07-01T15:00:30;1.70;;;1.20;;
9940;SDS011;5009;50.656;7.188;2022-07-01T15:03:01;1.05;;;1.05;;
9940;SDS011;5009;50.656;7.188;2022-07-01T15:05:27;1.88;;;1.50;;
9940;SDS011;5009;50.656;7.188;2022-07-01T15:07:52;1.27;;;1.25;;
9940;SDS011;5009;50.656;7.188;2022-07-01T15:10:18;1.30;;;1.10;;
9940;SDS011;5009;50.656;7.188;2022-07-01T15:12:43;1.33;;;1.23;;
9940;SDS011;5009;50.656;7.188;2022-07-01T15:15:09;1.40;;;1.30;;
9940;SDS011;5009;50.656;7.188;2022-07-01T15:17:40;1.65;;;1.55;;
9940;SDS011;5009;50.656;7.188;2022-07-01T15:20:08;1.77;;;1.40;;
9940;SDS011;5009;50.656;7.188;2022-07-01T15:22:35;1.33;;;1.23;;
9940;SDS011;5009;50.656;7.188;2022-07-01T15:25:00;1.73;;;1.40;;
9940;SDS011;5009;50.656;7.188;2022-07-01T15:27:26;3.40;;;1.55;;
9940;SDS011;5009;50.656;7.188;2022-07-01T15:29:51;1.83;;;1.27;;
9940;SDS011;5009;50.656;7.188;2022-07-01T15:32:17;3.22;;;1.45;;
9940;SDS011;5009;50.656;7.188;2022-07-01T15:34:42;1.42;;;1.10;;